Select Airport:
Chesapeake Regional Airport
Last updated: 17 minutes ago
Flight conditions: VFR
Visibility: 10.0 statute miles
Sky Conditions:
   Scattered clouds at 2300 feet
Wind From:
Wind speed: 0 knots (0 mph)
Temperature: -0.9°C (30.38°F)
Dew Point: -3.1°C (26.42°F)
Altimiter setting: 30.44 in-hg
WX phone: 1-757-204-4290
WX freq: 123.675 MHz
No wind, all runways available.
If at an uncontrolled airport, be sure to listen carefully to the CTAF for the runway(s) in use.
KCPK 230215Z AUTO 00000KT 10SM SCT023 M01/M03 A3044 RMK AO2 T10091031
FOR REFERENCE USE ONLY, DATA MAY NOT BE CURRENT.
ALWAYS CHECK FOR UP TO DATE INFORMATION.